sensor_id;sensor_type;location;lat;lon;timestamp;P1;durP1;ratioP1;P2;durP2;ratioP2
5867;SDS011;2960;49.142;7.768;2022-09-09T00:00:44;10.63;;;4.00;;
5867;SDS011;2960;49.142;7.768;2022-09-09T00:03:19;10.57;;;3.87;;
5867;SDS011;2960;49.142;7.768;2022-09-09T00:05:54;10.67;;;4.20;;
5867;SDS011;2960;49.142;7.768;2022-09-09T00:08:33;10.57;;;4.00;;
5867;SDS011;2960;49.142;7.768;2022-09-09T00:11:13;10.60;;;4.07;;
5867;SDS011;2960;49.142;7.768;2022-09-09T00:13:52;10.60;;;3.80;;
5867;SDS011;2960;49.142;7.768;2022-09-09T00:16:20;10.60;;;4.03;;
5867;SDS011;2960;49.142;7.768;2022-09-09T00:18:53;10.43;;;3.90;;
5867;SDS011;2960;49.142;7.768;2022-09-09T00:21:30;10.53;;;4.00;;
5867;SDS011;2960;49.142;7.768;2022-09-09T00:24:04;10.27;;;3.70;;
5867;SDS011;2960;49.142;7.768;2022-09-09T00:26:40;10.50;;;3.80;;
5867;SDS011;2960;49.142;7.768;2022-09-09T00:29:14;10.60;;;4.20;;
5867;SDS011;2960;49.142;7.768;2022-09-09T00:31:52;10.63;;;3.90;;
5867;SDS011;2960;49.142;7.768;2022-09-09T00:34:24;10.50;;;4.00;;
5867;SDS011;2960;49.142;7.768;2022-09-09T00:36:53;10.53;;;4.00;;
5867;SDS011;2960;49.142;7.768;2022-09-09T00:39:25;10.70;;;4.07;;
5867;SDS011;2960;49.142;7.768;2022-09-09T00:42:04;10.60;;;3.80;;
5867;SDS011;2960;49.142;7.768;2022-09-09T00:44:45;10.67;;;4.13;;
5867;SDS011;2960;49.142;7.768;2022-09-09T00:47:25;10.60;;;4.20;;
5867;SDS011;2960;49.142;7.768;2022-09-09T00:50:10;11.40;;;4.20;;
5867;SDS011;2960;49.142;7.768;2022-09-09T00:53:05;10.53;;;4.10;;
5867;SDS011;2960;49.142;7.768;2022-09-09T00:55:52;10.60;;;4.10;;
5867;SDS011;2960;49.142;7.768;2022-09-09T00:58:31;10.37;;;3.90;;
5867;SDS011;2960;49.142;7.768;2022-09-09T01:01:00;10.60;;;4.20;;
5867;SDS011;2960;49.142;7.768;2022-09-09T01:03:34;10.43;;;3.90;;
5867;SDS011;2960;49.142;7.768;2022-09-09T01:06:14;10.60;;;3.90;;
5867;SDS011;2960;49.142;7.768;2022-09-09T01:08:53;10.37;;;3.90;;
5867;SDS011;2960;49.142;7.768;2022-09-09T01:11:32;10.80;;;4.10;;
5867;SDS011;2960;49.142;7.768;2022-09-09T01:14:13;10.70;;;4.00;;
5867;SDS011;2960;49.142;7.768;2022-09-09T01:16:53;11.03;;;4.03;;
5867;SDS011;2960;49.142;7.768;2022-09-09T01:19:37;10.50;;;3.83;;
5867;SDS011;2960;49.142;7.768;2022-09-09T01:22:18;10.40;;;3.80;;
5867;SDS011;2960;49.142;7.768;2022-09-09T01:25:08;10.50;;;3.80;;
5867;SDS011;2960;49.142;7.768;2022-09-09T01:27:49;10.17;;;3.50;;
5867;SDS011;2960;49.142;7.768;2022-09-09T01:30:19;11.90;;;3.80;;
5867;SDS011;2960;49.142;7.768;2022-09-09T01:32:49;10.50;;;3.80;;
5867;SDS011;2960;49.142;7.768;2022-09-09T01:35:21;10.40;;;3.70;;
5867;SDS011;2960;49.142;7.768;2022-09-09T01:37:59;10.50;;;3.73;;
5867;SDS011;2960;49.142;7.768;2022-09-09T01:40:26;10.40;;;3.80;;
5867;SDS011;2960;49.142;7.768;2022-09-09T01:42:54;10.80;;;4.00;;
5867;SDS011;2960;49.142;7.768;2022-09-09T01:45:22;11.27;;;3.83;;
5867;SDS011;2960;49.142;7.768;2022-09-09T01:47:51;10.40;;;3.77;;
5867;SDS011;2960;49.142;7.768;2022-09-09T01:50:20;10.63;;;3.87;;
5867;SDS011;2960;49.142;7.768;2022-09-09T01:52:48;10.43;;;3.77;;
5867;SDS011;2960;49.142;7.768;2022-09-09T01:55:21;10.47;;;3.70;;
5867;SDS011;2960;49.142;7.768;2022-09-09T01:57:58;10.50;;;3.80;;
5867;SDS011;2960;49.142;7.768;2022-09-09T02:00:44;10.30;;;3.80;;
5867;SDS011;2960;49.142;7.768;2022-09-09T02:03:29;10.80;;;3.90;;
5867;SDS011;2960;49.142;7.768;2022-09-09T02:06:01;10.37;;;3.70;;
5867;SDS011;2960;49.142;7.768;2022-09-09T02:08:42;10.50;;;3.67;;
5867;SDS011;2960;49.142;7.768;2022-09-09T02:11:14;10.70;;;3.90;;
5867;SDS011;2960;49.142;7.768;2022-09-09T02:13:45;11.73;;;4.17;;
5867;SDS011;2960;49.142;7.768;2022-09-09T02:16:16;10.40;;;3.87;;
5867;SDS011;2960;49.142;7.768;2022-09-09T02:18:48;10.90;;;4.23;;
5867;SDS011;2960;49.142;7.768;2022-09-09T02:21:20;10.60;;;3.90;;
5867;SDS011;2960;49.142;7.768;2022-09-09T02:23:48;10.40;;;3.83;;
5867;SDS011;2960;49.142;7.768;2022-09-09T02:26:19;10.47;;;4.00;;
5867;SDS011;2960;49.142;7.768;2022-09-09T02:28:50;11.37;;;3.90;;
5867;SDS011;2960;49.142;7.768;2022-09-09T02:31:20;10.43;;;3.70;;
5867;SDS011;2960;49.142;7.768;2022-09-09T02:33:51;10.43;;;3.87;;
5867;SDS011;2960;49.142;7.768;2022-09-09T02:36:22;10.37;;;3.90;;
5867;SDS011;2960;49.142;7.768;2022-09-09T02:38:54;10.50;;;3.93;;
5867;SDS011;2960;49.142;7.768;2022-09-09T02:41:24;10.43;;;3.90;;
5867;SDS011;2960;49.142;7.768;2022-09-09T02:43:57;11.20;;;4.30;;
5867;SDS011;2960;49.142;7.768;2022-09-09T02:46:27;10.40;;;3.73;;
5867;SDS011;2960;49.142;7.768;2022-09-09T02:49:09;10.60;;;4.10;;
5867;SDS011;2960;49.142;7.768;2022-09-09T02:51:45;10.30;;;3.93;;
5867;SDS011;2960;49.142;7.768;2022-09-09T02:54:22;10.63;;;4.30;;
5867;SDS011;2960;49.142;7.768;2022-09-09T02:56:56;10.70;;;4.03;;
5867;SDS011;2960;49.142;7.768;2022-09-09T02:59:30;10.50;;;4.13;;
5867;SDS011;2960;49.142;7.768;2022-09-09T03:01:57;10.63;;;4.13;;
5867;SDS011;2960;49.142;7.768;2022-09-09T03:04:24;10.80;;;4.10;;
5867;SDS011;2960;49.142;7.768;2022-09-09T03:06:51;10.40;;;3.83;;
5867;SDS011;2960;49.142;7.768;2022-09-09T03:09:18;10.53;;;4.03;;
5867;SDS011;2960;49.142;7.768;2022-09-09T03:11:45;11.00;;;3.80;;
5867;SDS011;2960;49.142;7.768;2022-09-09T03:14:12;10.47;;;3.90;;
5867;SDS011;2960;49.142;7.768;2022-09-09T03:16:41;10.63;;;4.10;;
5867;SDS011;2960;49.142;7.768;2022-09-09T03:19:08;10.57;;;3.97;;
5867;SDS011;2960;49.142;7.768;2022-09-09T03:21:35;10.90;;;4.17;;
5867;SDS011;2960;49.142;7.768;2022-09-09T03:24:03;10.90;;;4.27;;
5867;SDS011;2960;49.142;7.768;2022-09-09T03:26:31;10.77;;;3.90;;
5867;SDS011;2960;49.142;7.768;2022-09-09T03:28:58;10.20;;;3.70;;
5867;SDS011;2960;49.142;7.768;2022-09-09T03:31:26;10.33;;;3.70;;
5867;SDS011;2960;49.142;7.768;2022-09-09T03:33:56;11.83;;;4.03;;
5867;SDS011;2960;49.142;7.768;2022-09-09T03:36:24;10.33;;;3.70;;
5867;SDS011;2960;49.142;7.768;2022-09-09T03:38:53;10.63;;;3.90;;
5867;SDS011;2960;49.142;7.768;2022-09-09T03:41:20;10.40;;;4.00;;
5867;SDS011;2960;49.142;7.768;2022-09-09T03:43:49;10.57;;;4.00;;
5867;SDS011;2960;49.142;7.768;2022-09-09T03:46:16;10.27;;;3.70;;
5867;SDS011;2960;49.142;7.768;2022-09-09T03:48:44;10.30;;;3.60;;
5867;SDS011;2960;49.142;7.768;2022-09-09T03:51:12;10.60;;;3.90;;
5867;SDS011;2960;49.142;7.768;2022-09-09T03:53:40;10.50;;;3.73;;
5867;SDS011;2960;49.142;7.768;2022-09-09T03:56:08;10.63;;;4.10;;
5867;SDS011;2960;49.142;7.768;2022-09-09T03:58:36;12.77;;;3.73;;
5867;SDS011;2960;49.142;7.768;2022-09-09T04:01:04;10.67;;;4.10;;
5867;SDS011;2960;49.142;7.768;2022-09-09T04:03:34;10.27;;;3.70;;
5867;SDS011;2960;49.142;7.768;2022-09-09T04:06:02;10.40;;;3.50;;
5867;SDS011;2960;49.142;7.768;2022-09-09T04:08:33;10.33;;;3.50;;
5867;SDS011;2960;49.142;7.768;2022-09-09T04:11:01;10.20;;;3.30;;
5867;SDS011;2960;49.142;7.768;2022-09-09T04:13:31;10.30;;;3.40;;
5867;SDS011;2960;49.142;7.768;2022-09-09T04:15:59;10.13;;;3.50;;
5867;SDS011;2960;49.142;7.768;2022-09-09T04:18:28;10.30;;;3.50;;
5867;SDS011;2960;49.142;7.768;2022-09-09T04:20:56;10.27;;;3.50;;
5867;SDS011;2960;49.142;7.768;2022-09-09T04:23:24;10.20;;;3.60;;
5867;SDS011;2960;49.142;7.768;2022-09-09T04:25:55;11.07;;;3.77;;
5867;SDS011;2960;49.142;7.768;2022-09-09T04:28:24;10.30;;;3.80;;
5867;SDS011;2960;49.142;7.768;2022-09-09T04:30:53;10.50;;;3.60;;
5867;SDS011;2960;49.142;7.768;2022-09-09T04:33:23;10.17;;;3.53;;
5867;SDS011;2960;49.142;7.768;2022-09-09T04:35:52;10.50;;;3.60;;
5867;SDS011;2960;49.142;7.768;2022-09-09T04:38:19;10.50;;;3.60;;
5867;SDS011;2960;49.142;7.768;2022-09-09T04:40:47;10.20;;;3.53;;
5867;SDS011;2960;49.142;7.768;2022-09-09T04:43:18;10.10;;;3.30;;
5867;SDS011;2960;49.142;7.768;2022-09-09T04:45:47;10.40;;;3.47;;
5867;SDS011;2960;49.142;7.768;2022-09-09T04:48:16;10.80;;;3.77;;
5867;SDS011;2960;49.142;7.768;2022-09-09T04:50:43;10.80;;;3.30;;
5867;SDS011;2960;49.142;7.768;2022-09-09T04:53:11;10.17;;;3.30;;
5867;SDS011;2960;49.142;7.768;2022-09-09T04:55:38;10.07;;;2.97;;
5867;SDS011;2960;49.142;7.768;2022-09-09T04:58:05;10.20;;;3.47;;
5867;SDS011;2960;49.142;7.768;2022-09-09T05:00:35;10.20;;;3.20;;
5867;SDS011;2960;49.142;7.768;2022-09-09T05:03:03;10.23;;;3.10;;
5867;SDS011;2960;49.142;7.768;2022-09-09T05:05:32;9.97;;;3.30;;
5867;SDS011;2960;49.142;7.768;2022-09-09T05:08:00;10.20;;;3.40;;
5867;SDS011;2960;49.142;7.768;2022-09-09T05:10:29;11.23;;;3.50;;
5867;SDS011;2960;49.142;7.768;2022-09-09T05:12:56;10.97;;;3.70;;
5867;SDS011;2960;49.142;7.768;2022-09-09T05:15:23;10.80;;;3.80;;
5867;SDS011;2960;49.142;7.768;2022-09-09T05:17:52;11.00;;;3.70;;
5867;SDS011;2960;49.142;7.768;2022-09-09T05:20:24;10.13;;;3.50;;
5867;SDS011;2960;49.142;7.768;2022-09-09T05:22:52;13.03;;;4.27;;
5867;SDS011;2960;49.142;7.768;2022-09-09T05:25:20;10.90;;;3.73;;
5867;SDS011;2960;49.142;7.768;2022-09-09T05:27:47;11.63;;;4.13;;
5867;SDS011;2960;49.142;7.768;2022-09-09T05:30:15;11.27;;;4.17;;
5867;SDS011;2960;49.142;7.768;2022-09-09T05:32:43;12.33;;;4.30;;
5867;SDS011;2960;49.142;7.768;2022-09-09T05:35:14;11.73;;;3.63;;
5867;SDS011;2960;49.142;7.768;2022-09-09T05:37:42;11.10;;;3.90;;
5867;SDS011;2960;49.142;7.768;2022-09-09T05:40:11;11.40;;;4.20;;
5867;SDS011;2960;49.142;7.768;2022-09-09T05:42:38;11.13;;;4.10;;
5867;SDS011;2960;49.142;7.768;2022-09-09T05:45:05;11.10;;;3.77;;
5867;SDS011;2960;49.142;7.768;2022-09-09T05:47:34;10.80;;;3.83;;
5867;SDS011;2960;49.142;7.768;2022-09-09T05:50:02;10.40;;;3.47;;
5867;SDS011;2960;49.142;7.768;2022-09-09T05:52:31;10.50;;;3.60;;
5867;SDS011;2960;49.142;7.768;2022-09-09T05:54:58;11.10;;;3.90;;
5867;SDS011;2960;49.142;7.768;2022-09-09T05:57:25;10.47;;;3.93;;
5867;SDS011;2960;49.142;7.768;2022-09-09T05:59:52;11.00;;;3.70;;
5867;SDS011;2960;49.142;7.768;2022-09-09T06:02:19;12.00;;;3.73;;
5867;SDS011;2960;49.142;7.768;2022-09-09T06:04:47;10.47;;;3.57;;
5867;SDS011;2960;49.142;7.768;2022-09-09T06:07:14;10.33;;;3.57;;
5867;SDS011;2960;49.142;7.768;2022-09-09T06:09:43;10.23;;;3.30;;
5867;SDS011;2960;49.142;7.768;2022-09-09T06:12:10;10.73;;;3.70;;
5867;SDS011;2960;49.142;7.768;2022-09-09T06:14:37;10.17;;;3.50;;
5867;SDS011;2960;49.142;7.768;2022-09-09T06:17:04;10.50;;;3.87;;
5867;SDS011;2960;49.142;7.768;2022-09-09T06:19:31;10.60;;;3.67;;
5867;SDS011;2960;49.142;7.768;2022-09-09T06:21:58;10.77;;;3.90;;
5867;SDS011;2960;49.142;7.768;2022-09-09T06:24:25;10.07;;;3.53;;
5867;SDS011;2960;49.142;7.768;2022-09-09T06:26:56;11.10;;;3.77;;
5867;SDS011;2960;49.142;7.768;2022-09-09T06:29:23;10.57;;;3.80;;
5867;SDS011;2960;49.142;7.768;2022-09-09T06:31:50;10.83;;;4.00;;
5867;SDS011;2960;49.142;7.768;2022-09-09T06:34:17;10.47;;;3.73;;
5867;SDS011;2960;49.142;7.768;2022-09-09T06:36:44;10.60;;;3.87;;
5867;SDS011;2960;49.142;7.768;2022-09-09T06:39:11;10.30;;;3.50;;
5867;SDS011;2960;49.142;7.768;2022-09-09T06:41:40;10.60;;;3.70;;
5867;SDS011;2960;49.142;7.768;2022-09-09T06:44:10;10.40;;;3.63;;
5867;SDS011;2960;49.142;7.768;2022-09-09T06:46:37;10.63;;;3.53;;
5867;SDS011;2960;49.142;7.768;2022-09-09T06:49:05;10.90;;;3.70;;
5867;SDS011;2960;49.142;7.768;2022-09-09T06:51:33;12.23;;;3.97;;
5867;SDS011;2960;49.142;7.768;2022-09-09T06:54:07;10.50;;;4.00;;
5867;SDS011;2960;49.142;7.768;2022-09-09T06:56:35;10.17;;;3.70;;
5867;SDS011;2960;49.142;7.768;2022-09-09T06:59:06;10.70;;;3.83;;
5867;SDS011;2960;49.142;7.768;2022-09-09T07:01:36;10.43;;;3.70;;
5867;SDS011;2960;49.142;7.768;2022-09-09T07:04:05;11.63;;;4.60;;
5867;SDS011;2960;49.142;7.768;2022-09-09T07:06:34;11.10;;;4.60;;
5867;SDS011;2960;49.142;7.768;2022-09-09T07:09:04;10.87;;;3.90;;
5867;SDS011;2960;49.142;7.768;2022-09-09T07:11:33;10.63;;;3.93;;
5867;SDS011;2960;49.142;7.768;2022-09-09T07:14:04;10.37;;;3.93;;
5867;SDS011;2960;49.142;7.768;2022-09-09T07:16:33;10.80;;;4.13;;
5867;SDS011;2960;49.142;7.768;2022-09-09T07:19:03;10.37;;;3.80;;
5867;SDS011;2960;49.142;7.768;2022-09-09T07:21:31;10.90;;;4.03;;
5867;SDS011;2960;49.142;7.768;2022-09-09T07:23:59;10.27;;;3.60;;
5867;SDS011;2960;49.142;7.768;2022-09-09T07:26:27;10.33;;;3.70;;
5867;SDS011;2960;49.142;7.768;2022-09-09T07:28:56;10.40;;;3.73;;
5867;SDS011;2960;49.142;7.768;2022-09-09T07:31:24;10.90;;;3.47;;
5867;SDS011;2960;49.142;7.768;2022-09-09T07:33:53;10.60;;;3.80;;
5867;SDS011;2960;49.142;7.768;2022-09-09T07:36:22;11.50;;;4.10;;
5867;SDS011;2960;49.142;7.768;2022-09-09T07:38:51;13.60;;;4.13;;
5867;SDS011;2960;49.142;7.768;2022-09-09T07:41:21;10.80;;;3.60;;
5867;SDS011;2960;49.142;7.768;2022-09-09T07:43:50;10.27;;;3.50;;
5867;SDS011;2960;49.142;7.768;2022-09-09T07:46:19;11.27;;;4.03;;
5867;SDS011;2960;49.142;7.768;2022-09-09T07:48:50;10.47;;;4.00;;
5867;SDS011;2960;49.142;7.768;2022-09-09T07:51:20;10.47;;;3.77;;
5867;SDS011;2960;49.142;7.768;2022-09-09T07:53:52;11.20;;;4.10;;
5867;SDS011;2960;49.142;7.768;2022-09-09T07:56:22;10.57;;;3.90;;
5867;SDS011;2960;49.142;7.768;2022-09-09T07:58:50;10.83;;;4.13;;
5867;SDS011;2960;49.142;7.768;2022-09-09T08:01:19;11.10;;;4.50;;
5867;SDS011;2960;49.142;7.768;2022-09-09T08:03:52;10.90;;;4.10;;
5867;SDS011;2960;49.142;7.768;2022-09-09T08:06:25;11.23;;;3.93;;
5867;SDS011;2960;49.142;7.768;2022-09-09T08:08:54;11.00;;;4.20;;
5867;SDS011;2960;49.142;7.768;2022-09-09T08:11:22;14.60;;;4.30;;
5867;SDS011;2960;49.142;7.768;2022-09-09T08:13:52;12.10;;;4.30;;
5867;SDS011;2960;49.142;7.768;2022-09-09T08:16:20;11.37;;;4.03;;
5867;SDS011;2960;49.142;7.768;2022-09-09T08:18:50;11.40;;;4.20;;
5867;SDS011;2960;49.142;7.768;2022-09-09T08:21:20;11.67;;;3.80;;
5867;SDS011;2960;49.142;7.768;2022-09-09T08:23:51;10.80;;;3.87;;
5867;SDS011;2960;49.142;7.768;2022-09-09T08:26:19;12.13;;;4.53;;
5867;SDS011;2960;49.142;7.768;2022-09-09T08:28:49;11.97;;;4.40;;
5867;SDS011;2960;49.142;7.768;2022-09-09T08:31:18;10.60;;;4.20;;
5867;SDS011;2960;49.142;7.768;2022-09-09T08:33:48;10.70;;;4.03;;
5867;SDS011;2960;49.142;7.768;2022-09-09T08:36:16;10.80;;;4.13;;
5867;SDS011;2960;49.142;7.768;2022-09-09T08:38:46;11.27;;;3.97;;
5867;SDS011;2960;49.142;7.768;2022-09-09T08:41:22;10.43;;;3.70;;
5867;SDS011;2960;49.142;7.768;2022-09-09T08:44:19;11.63;;;4.20;;
5867;SDS011;2960;49.142;7.768;2022-09-09T08:46:55;11.20;;;4.40;;
5867;SDS011;2960;49.142;7.768;2022-09-09T08:49:37;11.70;;;4.30;;
5867;SDS011;2960;49.142;7.768;2022-09-09T08:52:18;12.37;;;4.57;;
5867;SDS011;2960;49.142;7.768;2022-09-09T08:54:49;12.27;;;4.30;;
5867;SDS011;2960;49.142;7.768;2022-09-09T08:57:21;10.67;;;3.93;;
5867;SDS011;2960;49.142;7.768;2022-09-09T08:59:52;10.70;;;3.90;;
5867;SDS011;2960;49.142;7.768;2022-09-09T09:02:23;10.67;;;3.97;;
5867;SDS011;2960;49.142;7.768;2022-09-09T09:04:58;11.87;;;4.20;;
5867;SDS011;2960;49.142;7.768;2022-09-09T09:07:42;11.80;;;4.60;;
5867;SDS011;2960;49.142;7.768;2022-09-09T09:10:28;10.90;;;4.10;;
5867;SDS011;2960;49.142;7.768;2022-09-09T09:13:09;11.90;;;4.60;;
5867;SDS011;2960;49.142;7.768;2022-09-09T09:15:41;16.03;;;4.93;;
5867;SDS011;2960;49.142;7.768;2022-09-09T09:18:14;10.77;;;4.17;;
5867;SDS011;2960;49.142;7.768;2022-09-09T09:20:45;11.10;;;4.70;;
5867;SDS011;2960;49.142;7.768;2022-09-09T09:23:24;11.10;;;4.10;;
5867;SDS011;2960;49.142;7.768;2022-09-09T09:26:00;11.60;;;4.70;;
5867;SDS011;2960;49.142;7.768;2022-09-09T09:28:30;11.80;;;4.53;;
5867;SDS011;2960;49.142;7.768;2022-09-09T09:30:59;11.50;;;4.30;;
5867;SDS011;2960;49.142;7.768;2022-09-09T09:33:33;11.20;;;4.50;;
5867;SDS011;2960;49.142;7.768;2022-09-09T09:36:14;11.07;;;4.57;;
5867;SDS011;2960;49.142;7.768;2022-09-09T09:38:51;14.07;;;4.80;;
5867;SDS011;2960;49.142;7.768;2022-09-09T09:41:31;11.20;;;4.60;;
5867;SDS011;2960;49.142;7.768;2022-09-09T09:44:02;11.43;;;4.97;;
5867;SDS011;2960;49.142;7.768;2022-09-09T09:46:29;11.30;;;4.70;;
5867;SDS011;2960;49.142;7.768;2022-09-09T09:48:58;13.17;;;4.90;;
5867;SDS011;2960;49.142;7.768;2022-09-09T09:51:26;12.47;;;4.63;;
5867;SDS011;2960;49.142;7.768;2022-09-09T09:54:02;11.60;;;4.60;;
5867;SDS011;2960;49.142;7.768;2022-09-09T09:56:35;11.87;;;5.07;;
5867;SDS011;2960;49.142;7.768;2022-09-09T09:59:04;11.83;;;5.20;;
5867;SDS011;2960;49.142;7.768;2022-09-09T10:01:32;11.07;;;4.90;;
5867;SDS011;2960;49.142;7.768;2022-09-09T10:04:01;11.13;;;4.83;;
5867;SDS011;2960;49.142;7.768;2022-09-09T10:06:40;11.37;;;4.73;;
5867;SDS011;2960;49.142;7.768;2022-09-09T10:09:18;11.30;;;4.77;;
5867;SDS011;2960;49.142;7.768;2022-09-09T10:11:51;12.20;;;4.80;;
5867;SDS011;2960;49.142;7.768;2022-09-09T10:14:35;12.07;;;4.33;;
5867;SDS011;2960;49.142;7.768;2022-09-09T10:17:11;12.07;;;5.10;;
5867;SDS011;2960;49.142;7.768;2022-09-09T10:19:46;11.90;;;5.20;;
5867;SDS011;2960;49.142;7.768;2022-09-09T10:22:25;12.03;;;5.33;;
5867;SDS011;2960;49.142;7.768;2022-09-09T10:28:06;12.27;;;4.67;;
5867;SDS011;2960;49.142;7.768;2022-09-09T10:31:04;10.60;;;4.60;;
5867;SDS011;2960;49.142;7.768;2022-09-09T10:33:44;14.03;;;5.10;;
5867;SDS011;2960;49.142;7.768;2022-09-09T10:36:17;13.60;;;5.10;;
5867;SDS011;2960;49.142;7.768;2022-09-09T10:38:50;11.80;;;4.80;;
5867;SDS011;2960;49.142;7.768;2022-09-09T10:41:30;13.67;;;5.03;;
5867;SDS011;2960;49.142;7.768;2022-09-09T10:44:16;12.37;;;4.90;;
5867;SDS011;2960;49.142;7.768;2022-09-09T10:47:03;11.20;;;4.70;;
5867;SDS011;2960;49.142;7.768;2022-09-09T10:49:52;11.20;;;4.77;;
5867;SDS011;2960;49.142;7.768;2022-09-09T10:52:53;11.60;;;5.00;;
5867;SDS011;2960;49.142;7.768;2022-09-09T10:55:32;11.13;;;4.63;;
5867;SDS011;2960;49.142;7.768;2022-09-09T10:58:05;11.47;;;4.57;;
5867;SDS011;2960;49.142;7.768;2022-09-09T11:00:38;11.60;;;4.60;;
5867;SDS011;2960;49.142;7.768;2022-09-09T11:03:14;12.40;;;4.37;;
5867;SDS011;2960;49.142;7.768;2022-09-09T11:05:46;11.00;;;4.33;;
5867;SDS011;2960;49.142;7.768;2022-09-09T11:08:18;13.47;;;5.00;;
5867;SDS011;2960;49.142;7.768;2022-09-09T11:10:48;11.40;;;4.40;;
5867;SDS011;2960;49.142;7.768;2022-09-09T11:13:24;11.40;;;4.30;;
5867;SDS011;2960;49.142;7.768;2022-09-09T11:15:58;14.43;;;4.60;;
5867;SDS011;2960;49.142;7.768;2022-09-09T11:18:33;10.70;;;4.33;;
5867;SDS011;2960;49.142;7.768;2022-09-09T11:21:07;11.30;;;4.87;;
5867;SDS011;2960;49.142;7.768;2022-09-09T11:23:44;11.60;;;4.77;;
5867;SDS011;2960;49.142;7.768;2022-09-09T11:26:17;17.70;;;4.73;;
5867;SDS011;2960;49.142;7.768;2022-09-09T11:28:57;11.70;;;4.70;;
5867;SDS011;2960;49.142;7.768;2022-09-09T11:31:56;15.20;;;4.90;;
5867;SDS011;2960;49.142;7.768;2022-09-09T11:34:46;11.90;;;4.87;;
5867;SDS011;2960;49.142;7.768;2022-09-09T11:37:33;12.50;;;4.47;;
5867;SDS011;2960;49.142;7.768;2022-09-09T11:40:19;13.77;;;4.60;;
5867;SDS011;2960;49.142;7.768;2022-09-09T11:43:00;10.60;;;4.20;;
5867;SDS011;2960;49.142;7.768;2022-09-09T11:45:30;10.93;;;4.23;;
5867;SDS011;2960;49.142;7.768;2022-09-09T11:47:58;11.07;;;4.30;;
5867;SDS011;2960;49.142;7.768;2022-09-09T11:50:29;11.43;;;4.20;;
5867;SDS011;2960;49.142;7.768;2022-09-09T11:53:19;11.00;;;4.47;;
5867;SDS011;2960;49.142;7.768;2022-09-09T11:58:42;11.10;;;4.40;;
5867;SDS011;2960;49.142;7.768;2022-09-09T12:04:21;11.10;;;4.53;;
5867;SDS011;2960;49.142;7.768;2022-09-09T12:07:05;10.93;;;4.20;;
5867;SDS011;2960;49.142;7.768;2022-09-09T12:10:01;12.83;;;5.00;;
5867;SDS011;2960;49.142;7.768;2022-09-09T12:12:32;10.97;;;4.67;;
5867;SDS011;2960;49.142;7.768;2022-09-09T12:15:19;10.87;;;4.47;;
5867;SDS011;2960;49.142;7.768;2022-09-09T12:17:54;11.40;;;4.50;;
5867;SDS011;2960;49.142;7.768;2022-09-09T12:20:23;13.03;;;4.40;;
5867;SDS011;2960;49.142;7.768;2022-09-09T12:23:14;11.50;;;4.70;;
5867;SDS011;2960;49.142;7.768;2022-09-09T12:26:20;11.00;;;4.47;;
5867;SDS011;2960;49.142;7.768;2022-09-09T12:29:10;12.27;;;4.70;;
5867;SDS011;2960;49.142;7.768;2022-09-09T12:31:49;14.73;;;5.27;;
5867;SDS011;2960;49.142;7.768;2022-09-09T12:34:29;10.87;;;4.20;;
5867;SDS011;2960;49.142;7.768;2022-09-09T12:37:05;12.10;;;4.40;;
5867;SDS011;2960;49.142;7.768;2022-09-09T12:39:45;15.17;;;4.50;;
5867;SDS011;2960;49.142;7.768;2022-09-09T12:42:18;11.80;;;4.40;;
5867;SDS011;2960;49.142;7.768;2022-09-09T12:44:53;12.63;;;5.10;;
5867;SDS011;2960;49.142;7.768;2022-09-09T12:47:23;10.90;;;4.50;;
5867;SDS011;2960;49.142;7.768;2022-09-09T12:49:59;13.47;;;4.60;;
5867;SDS011;2960;49.142;7.768;2022-09-09T12:52:27;12.10;;;5.33;;
5867;SDS011;2960;49.142;7.768;2022-09-09T12:55:00;12.10;;;4.30;;
5867;SDS011;2960;49.142;7.768;2022-09-09T12:57:32;10.97;;;4.73;;
5867;SDS011;2960;49.142;7.768;2022-09-09T13:00:06;10.63;;;4.50;;
5867;SDS011;2960;49.142;7.768;2022-09-09T13:02:47;10.93;;;4.80;;
5867;SDS011;2960;49.142;7.768;2022-09-09T13:05:18;11.53;;;4.83;;
5867;SDS011;2960;49.142;7.768;2022-09-09T13:07:48;10.70;;;4.20;;
5867;SDS011;2960;49.142;7.768;2022-09-09T13:10:21;12.43;;;4.43;;
5867;SDS011;2960;49.142;7.768;2022-09-09T13:12:52;10.70;;;4.30;;
5867;SDS011;2960;49.142;7.768;2022-09-09T13:15:20;11.07;;;4.40;;
5867;SDS011;2960;49.142;7.768;2022-09-09T13:17:53;11.80;;;4.90;;
5867;SDS011;2960;49.142;7.768;2022-09-09T13:20:23;12.87;;;4.80;;
5867;SDS011;2960;49.142;7.768;2022-09-09T13:22:51;10.73;;;4.13;;
5867;SDS011;2960;49.142;7.768;2022-09-09T13:25:23;11.50;;;4.70;;
5867;SDS011;2960;49.142;7.768;2022-09-09T13:27:54;11.93;;;5.00;;
5867;SDS011;2960;49.142;7.768;2022-09-09T13:30:25;12.00;;;4.70;;
5867;SDS011;2960;49.142;7.768;2022-09-09T13:32:59;11.57;;;4.53;;
5867;SDS011;2960;49.142;7.768;2022-09-09T13:35:28;12.57;;;4.40;;
5867;SDS011;2960;49.142;7.768;2022-09-09T13:37:56;11.40;;;4.40;;
5867;SDS011;2960;49.142;7.768;2022-09-09T13:40:25;11.77;;;4.50;;
5867;SDS011;2960;49.142;7.768;2022-09-09T13:42:54;11.50;;;4.43;;
5867;SDS011;2960;49.142;7.768;2022-09-09T13:45:23;11.00;;;4.13;;
5867;SDS011;2960;49.142;7.768;2022-09-09T13:47:53;11.00;;;3.93;;
5867;SDS011;2960;49.142;7.768;2022-09-09T13:50:22;10.70;;;3.97;;
5867;SDS011;2960;49.142;7.768;2022-09-09T13:52:52;11.40;;;4.30;;
5867;SDS011;2960;49.142;7.768;2022-09-09T13:55:24;12.90;;;4.20;;
5867;SDS011;2960;49.142;7.768;2022-09-09T13:57:54;11.00;;;4.23;;
5867;SDS011;2960;49.142;7.768;2022-09-09T14:00:23;13.20;;;4.03;;
5867;SDS011;2960;49.142;7.768;2022-09-09T14:02:50;10.97;;;4.30;;
5867;SDS011;2960;49.142;7.768;2022-09-09T14:05:20;12.13;;;4.87;;
5867;SDS011;2960;49.142;7.768;2022-09-09T14:07:48;11.23;;;4.30;;
5867;SDS011;2960;49.142;7.768;2022-09-09T14:10:16;11.77;;;4.10;;
5867;SDS011;2960;49.142;7.768;2022-09-09T14:12:44;12.23;;;4.03;;
5867;SDS011;2960;49.142;7.768;2022-09-09T14:15:12;10.70;;;4.10;;
5867;SDS011;2960;49.142;7.768;2022-09-09T14:17:39;11.00;;;4.40;;
5867;SDS011;2960;49.142;7.768;2022-09-09T14:20:07;11.33;;;3.93;;
5867;SDS011;2960;49.142;7.768;2022-09-09T14:22:36;10.63;;;3.80;;
5867;SDS011;2960;49.142;7.768;2022-09-09T14:25:06;13.33;;;4.10;;
5867;SDS011;2960;49.142;7.768;2022-09-09T14:27:34;10.80;;;4.07;;
5867;SDS011;2960;49.142;7.768;2022-09-09T14:30:02;12.63;;;4.17;;
5867;SDS011;2960;49.142;7.768;2022-09-09T14:32:30;11.00;;;4.43;;
5867;SDS011;2960;49.142;7.768;2022-09-09T14:34:58;11.07;;;4.80;;
5867;SDS011;2960;49.142;7.768;2022-09-09T14:37:25;11.47;;;4.93;;
5867;SDS011;2960;49.142;7.768;2022-09-09T14:39:53;13.00;;;4.50;;
5867;SDS011;2960;49.142;7.768;2022-09-09T14:42:21;10.90;;;4.40;;
5867;SDS011;2960;49.142;7.768;2022-09-09T14:44:48;10.90;;;4.43;;
5867;SDS011;2960;49.142;7.768;2022-09-09T14:47:17;10.80;;;4.40;;
5867;SDS011;2960;49.142;7.768;2022-09-09T14:49:44;10.80;;;4.33;;
5867;SDS011;2960;49.142;7.768;2022-09-09T14:52:14;10.80;;;4.33;;
5867;SDS011;2960;49.142;7.768;2022-09-09T14:54:42;11.80;;;4.40;;
5867;SDS011;2960;49.142;7.768;2022-09-09T14:57:09;10.53;;;4.20;;
5867;SDS011;2960;49.142;7.768;2022-09-09T14:59:36;10.50;;;4.23;;
5867;SDS011;2960;49.142;7.768;2022-09-09T15:02:03;10.70;;;3.83;;
5867;SDS011;2960;49.142;7.768;2022-09-09T15:04:32;10.63;;;3.87;;
5867;SDS011;2960;49.142;7.768;2022-09-09T15:07:00;11.37;;;4.50;;
5867;SDS011;2960;49.142;7.768;2022-09-09T15:09:27;10.63;;;4.03;;
5867;SDS011;2960;49.142;7.768;2022-09-09T15:11:55;10.90;;;4.20;;
5867;SDS011;2960;49.142;7.768;2022-09-09T15:14:22;11.17;;;4.20;;
5867;SDS011;2960;49.142;7.768;2022-09-09T15:16:49;12.50;;;4.37;;
5867;SDS011;2960;49.142;7.768;2022-09-09T15:19:16;10.77;;;4.50;;
5867;SDS011;2960;49.142;7.768;2022-09-09T15:21:44;10.60;;;4.07;;
5867;SDS011;2960;49.142;7.768;2022-09-09T15:24:12;10.77;;;4.20;;
5867;SDS011;2960;49.142;7.768;2022-09-09T15:26:39;11.60;;;4.20;;
5867;SDS011;2960;49.142;7.768;2022-09-09T15:29:07;10.57;;;4.20;;
5867;SDS011;2960;49.142;7.768;2022-09-09T15:31:34;11.77;;;3.97;;
5867;SDS011;2960;49.142;7.768;2022-09-09T15:34:03;10.40;;;3.93;;
5867;SDS011;2960;49.142;7.768;2022-09-09T15:36:33;10.50;;;4.13;;
5867;SDS011;2960;49.142;7.768;2022-09-09T15:39:04;11.40;;;3.90;;